sensor_id;sensor_type;location;lat;lon;timestamp;P1;durP1;ratioP1;P2;durP2;ratioP2
24859;SDS011;12936;52.006;4.350;2024-01-06T00:01:30;8.17;;;3.67;;
24859;SDS011;12936;52.006;4.350;2024-01-06T00:03:58;10.40;;;3.23;;
24859;SDS011;12936;52.006;4.350;2024-01-06T00:06:26;8.97;;;4.10;;
24859;SDS011;12936;52.006;4.350;2024-01-06T00:08:54;9.47;;;4.30;;
24859;SDS011;12936;52.006;4.350;2024-01-06T00:11:23;8.97;;;4.00;;
24859;SDS011;12936;52.006;4.350;2024-01-06T00:13:51;5.80;;;3.80;;
24859;SDS011;12936;52.006;4.350;2024-01-06T00:16:21;8.53;;;3.93;;
24859;SDS011;12936;52.006;4.350;2024-01-06T00:18:53;7.13;;;3.73;;
24859;SDS011;12936;52.006;4.350;2024-01-06T00:21:21;8.43;;;3.80;;
24859;SDS011;12936;52.006;4.350;2024-01-06T00:23:49;7.50;;;3.57;;
24859;SDS011;12936;52.006;4.350;2024-01-06T00:26:17;7.83;;;4.03;;
24859;SDS011;12936;52.006;4.350;2024-01-06T00:28:48;9.03;;;3.83;;
24859;SDS011;12936;52.006;4.350;2024-01-06T00:31:16;7.30;;;4.10;;
24859;SDS011;12936;52.006;4.350;2024-01-06T00:33:47;9.33;;;3.70;;
24859;SDS011;12936;52.006;4.350;2024-01-06T00:36:15;8.07;;;4.53;;
24859;SDS011;12936;52.006;4.350;2024-01-06T00:38:43;9.40;;;4.33;;
24859;SDS011;12936;52.006;4.350;2024-01-06T00:41:11;7.27;;;4.43;;
24859;SDS011;12936;52.006;4.350;2024-01-06T00:43:40;5.87;;;3.97;;
24859;SDS011;12936;52.006;4.350;2024-01-06T00:46:08;5.50;;;4.17;;
24859;SDS011;12936;52.006;4.350;2024-01-06T00:48:36;7.77;;;4.47;;
24859;SDS011;12936;52.006;4.350;2024-01-06T00:51:06;7.53;;;4.20;;
24859;SDS011;12936;52.006;4.350;2024-01-06T00:53:34;6.67;;;4.23;;
24859;SDS011;12936;52.006;4.350;2024-01-06T00:56:02;7.80;;;4.63;;
24859;SDS011;12936;52.006;4.350;2024-01-06T00:58:31;6.20;;;4.20;;
24859;SDS011;12936;52.006;4.350;2024-01-06T01:00:59;6.63;;;4.37;;
24859;SDS011;12936;52.006;4.350;2024-01-06T01:03:27;9.70;;;4.40;;
24859;SDS011;12936;52.006;4.350;2024-01-06T01:05:55;8.83;;;5.00;;
24859;SDS011;12936;52.006;4.350;2024-01-06T01:08:25;9.37;;;4.00;;
24859;SDS011;12936;52.006;4.350;2024-01-06T01:10:53;10.33;;;4.20;;
24859;SDS011;12936;52.006;4.350;2024-01-06T01:13:21;7.87;;;4.57;;
24859;SDS011;12936;52.006;4.350;2024-01-06T01:15:49;8.90;;;4.93;;
24859;SDS011;12936;52.006;4.350;2024-01-06T01:18:17;7.87;;;3.40;;
24859;SDS011;12936;52.006;4.350;2024-01-06T01:20:46;9.83;;;3.87;;
24859;SDS011;12936;52.006;4.350;2024-01-06T01:23:14;13.90;;;3.13;;
24859;SDS011;12936;52.006;4.350;2024-01-06T01:25:44;9.63;;;2.60;;
24859;SDS011;12936;52.006;4.350;2024-01-06T01:28:12;5.63;;;2.27;;
24859;SDS011;12936;52.006;4.350;2024-01-06T01:30:40;8.57;;;2.03;;
24859;SDS011;12936;52.006;4.350;2024-01-06T01:33:09;3.53;;;1.03;;
24859;SDS011;12936;52.006;4.350;2024-01-06T01:35:37;3.73;;;1.10;;
24859;SDS011;12936;52.006;4.350;2024-01-06T01:38:06;1.77;;;0.90;;
24859;SDS011;12936;52.006;4.350;2024-01-06T01:40:34;3.23;;;0.90;;
24859;SDS011;12936;52.006;4.350;2024-01-06T01:43:04;2.60;;;0.73;;
24859;SDS011;12936;52.006;4.350;2024-01-06T01:45:35;4.67;;;0.87;;
24859;SDS011;12936;52.006;4.350;2024-01-06T01:48:05;7.77;;;1.00;;
24859;SDS011;12936;52.006;4.350;2024-01-06T01:50:34;7.20;;;1.30;;
24859;SDS011;12936;52.006;4.350;2024-01-06T01:53:02;6.77;;;1.17;;
24859;SDS011;12936;52.006;4.350;2024-01-06T01:55:30;2.73;;;0.90;;
24859;SDS011;12936;52.006;4.350;2024-01-06T01:57:58;3.47;;;1.00;;
24859;SDS011;12936;52.006;4.350;2024-01-06T02:00:28;5.20;;;1.03;;
24859;SDS011;12936;52.006;4.350;2024-01-06T02:02:56;2.50;;;0.80;;
24859;SDS011;12936;52.006;4.350;2024-01-06T02:05:26;2.60;;;0.90;;
24859;SDS011;12936;52.006;4.350;2024-01-06T02:07:54;2.93;;;1.20;;
24859;SDS011;12936;52.006;4.350;2024-01-06T02:10:22;2.97;;;1.07;;
24859;SDS011;12936;52.006;4.350;2024-01-06T02:12:51;3.00;;;1.00;;
24859;SDS011;12936;52.006;4.350;2024-01-06T02:15:19;1.57;;;0.90;;
24859;SDS011;12936;52.006;4.350;2024-01-06T02:17:48;5.63;;;1.33;;
24859;SDS011;12936;52.006;4.350;2024-01-06T02:20:17;3.53;;;1.07;;
24859;SDS011;12936;52.006;4.350;2024-01-06T02:22:48;5.17;;;1.40;;
24859;SDS011;12936;52.006;4.350;2024-01-06T02:25:16;3.00;;;1.30;;
24859;SDS011;12936;52.006;4.350;2024-01-06T02:27:45;6.43;;;2.13;;
24859;SDS011;12936;52.006;4.350;2024-01-06T02:30:14;3.03;;;1.70;;
24859;SDS011;12936;52.006;4.350;2024-01-06T02:32:42;2.90;;;1.83;;
24859;SDS011;12936;52.006;4.350;2024-01-06T02:35:10;2.87;;;1.90;;
24859;SDS011;12936;52.006;4.350;2024-01-06T02:37:38;11.13;;;2.47;;
24859;SDS011;12936;52.006;4.350;2024-01-06T02:40:08;5.13;;;2.10;;
24859;SDS011;12936;52.006;4.350;2024-01-06T02:42:37;4.13;;;2.40;;
24859;SDS011;12936;52.006;4.350;2024-01-06T02:45:06;7.30;;;2.87;;
24859;SDS011;12936;52.006;4.350;2024-01-06T02:47:35;4.70;;;2.60;;
24859;SDS011;12936;52.006;4.350;2024-01-06T02:50:04;5.20;;;2.20;;
24859;SDS011;12936;52.006;4.350;2024-01-06T02:52:33;3.37;;;2.67;;
24859;SDS011;12936;52.006;4.350;2024-01-06T02:55:01;10.80;;;2.90;;
24859;SDS011;12936;52.006;4.350;2024-01-06T02:57:31;4.87;;;2.50;;
24859;SDS011;12936;52.006;4.350;2024-01-06T02:59:59;5.17;;;2.50;;
24859;SDS011;12936;52.006;4.350;2024-01-06T03:02:27;5.47;;;2.60;;
24859;SDS011;12936;52.006;4.350;2024-01-06T03:04:55;6.57;;;2.73;;
24859;SDS011;12936;52.006;4.350;2024-01-06T03:07:23;4.17;;;2.10;;
24859;SDS011;12936;52.006;4.350;2024-01-06T03:09:53;7.80;;;3.27;;
24859;SDS011;12936;52.006;4.350;2024-01-06T03:12:21;8.07;;;4.10;;
24859;SDS011;12936;52.006;4.350;2024-01-06T03:14:50;7.77;;;3.53;;
24859;SDS011;12936;52.006;4.350;2024-01-06T03:17:19;9.00;;;3.33;;
24859;SDS011;12936;52.006;4.350;2024-01-06T03:19:47;7.47;;;3.60;;
24859;SDS011;12936;52.006;4.350;2024-01-06T03:22:16;6.97;;;3.00;;
24859;SDS011;12936;52.006;4.350;2024-01-06T03:24:44;9.87;;;3.13;;
24859;SDS011;12936;52.006;4.350;2024-01-06T03:27:12;7.33;;;3.13;;
24859;SDS011;12936;52.006;4.350;2024-01-06T03:29:40;5.20;;;3.60;;
24859;SDS011;12936;52.006;4.350;2024-01-06T03:32:09;6.30;;;3.50;;
24859;SDS011;12936;52.006;4.350;2024-01-06T03:34:37;7.87;;;3.47;;
24859;SDS011;12936;52.006;4.350;2024-01-06T03:37:06;7.07;;;3.67;;
24859;SDS011;12936;52.006;4.350;2024-01-06T03:39:34;8.67;;;3.70;;
24859;SDS011;12936;52.006;4.350;2024-01-06T03:42:02;7.80;;;3.73;;
24859;SDS011;12936;52.006;4.350;2024-01-06T03:44:30;12.30;;;4.57;;
24859;SDS011;12936;52.006;4.350;2024-01-06T03:46:59;6.00;;;3.90;;
24859;SDS011;12936;52.006;4.350;2024-01-06T03:49:29;8.33;;;3.13;;
24859;SDS011;12936;52.006;4.350;2024-01-06T03:51:57;5.27;;;3.10;;
24859;SDS011;12936;52.006;4.350;2024-01-06T03:54:25;8.13;;;2.93;;
24859;SDS011;12936;52.006;4.350;2024-01-06T03:56:53;6.10;;;3.47;;
24859;SDS011;12936;52.006;4.350;2024-01-06T03:59:24;5.90;;;3.63;;
24859;SDS011;12936;52.006;4.350;2024-01-06T04:01:52;6.40;;;3.47;;
24859;SDS011;12936;52.006;4.350;2024-01-06T04:04:20;5.57;;;2.97;;
24859;SDS011;12936;52.006;4.350;2024-01-06T04:06:50;7.17;;;3.13;;
24859;SDS011;12936;52.006;4.350;2024-01-06T04:09:18;4.43;;;3.20;;
24859;SDS011;12936;52.006;4.350;2024-01-06T04:11:47;7.37;;;3.60;;
24859;SDS011;12936;52.006;4.350;2024-01-06T04:14:16;6.47;;;3.53;;
24859;SDS011;12936;52.006;4.350;2024-01-06T04:16:44;5.23;;;3.57;;
24859;SDS011;12936;52.006;4.350;2024-01-06T04:19:12;8.43;;;3.73;;
24859;SDS011;12936;52.006;4.350;2024-01-06T04:21:41;7.00;;;3.47;;
24859;SDS011;12936;52.006;4.350;2024-01-06T04:24:11;9.73;;;3.20;;
24859;SDS011;12936;52.006;4.350;2024-01-06T04:26:39;8.20;;;3.50;;
24859;SDS011;12936;52.006;4.350;2024-01-06T04:29:07;7.33;;;3.47;;
24859;SDS011;12936;52.006;4.350;2024-01-06T04:31:35;5.33;;;3.40;;
24859;SDS011;12936;52.006;4.350;2024-01-06T04:34:03;6.57;;;3.77;;
24859;SDS011;12936;52.006;4.350;2024-01-06T04:36:31;4.53;;;3.40;;
24859;SDS011;12936;52.006;4.350;2024-01-06T04:39:00;4.53;;;3.53;;
24859;SDS011;12936;52.006;4.350;2024-01-06T04:41:29;7.10;;;3.37;;
24859;SDS011;12936;52.006;4.350;2024-01-06T04:43:57;7.27;;;3.10;;
24859;SDS011;12936;52.006;4.350;2024-01-06T04:46:25;5.33;;;2.70;;
24859;SDS011;12936;52.006;4.350;2024-01-06T04:48:53;5.80;;;2.87;;
24859;SDS011;12936;52.006;4.350;2024-01-06T04:51:21;6.20;;;2.90;;
24859;SDS011;12936;52.006;4.350;2024-01-06T04:53:50;6.73;;;2.90;;
24859;SDS011;12936;52.006;4.350;2024-01-06T04:56:21;6.17;;;3.20;;
24859;SDS011;12936;52.006;4.350;2024-01-06T04:58:50;7.90;;;3.07;;
24859;SDS011;12936;52.006;4.350;2024-01-06T05:01:18;4.37;;;2.53;;
24859;SDS011;12936;52.006;4.350;2024-01-06T05:03:47;6.57;;;3.37;;
24859;SDS011;12936;52.006;4.350;2024-01-06T05:06:15;5.17;;;3.17;;
24859;SDS011;12936;52.006;4.350;2024-01-06T05:08:43;5.87;;;2.90;;
24859;SDS011;12936;52.006;4.350;2024-01-06T05:11:11;6.90;;;2.70;;
24859;SDS011;12936;52.006;4.350;2024-01-06T05:13:40;7.50;;;3.37;;
24859;SDS011;12936;52.006;4.350;2024-01-06T05:16:09;7.40;;;2.57;;
24859;SDS011;12936;52.006;4.350;2024-01-06T05:18:37;5.33;;;2.60;;
24859;SDS011;12936;52.006;4.350;2024-01-06T05:21:06;4.63;;;2.40;;
24859;SDS011;12936;52.006;4.350;2024-01-06T05:23:34;4.93;;;2.60;;
24859;SDS011;12936;52.006;4.350;2024-01-06T05:26:03;5.73;;;2.70;;
24859;SDS011;12936;52.006;4.350;2024-01-06T05:28:31;6.60;;;2.70;;
24859;SDS011;12936;52.006;4.350;2024-01-06T05:30:59;4.43;;;3.00;;
24859;SDS011;12936;52.006;4.350;2024-01-06T05:33:29;9.23;;;3.13;;
24859;SDS011;12936;52.006;4.350;2024-01-06T05:35:57;5.63;;;2.03;;
24859;SDS011;12936;52.006;4.350;2024-01-06T05:38:25;7.00;;;2.30;;
24859;SDS011;12936;52.006;4.350;2024-01-06T05:40:53;4.17;;;2.57;;
24859;SDS011;12936;52.006;4.350;2024-01-06T05:43:21;5.23;;;2.50;;
24859;SDS011;12936;52.006;4.350;2024-01-06T05:45:49;5.93;;;3.10;;
24859;SDS011;12936;52.006;4.350;2024-01-06T05:48:17;8.23;;;2.63;;
24859;SDS011;12936;52.006;4.350;2024-01-06T05:50:47;6.57;;;2.97;;
24859;SDS011;12936;52.006;4.350;2024-01-06T05:53:15;3.73;;;2.63;;
24859;SDS011;12936;52.006;4.350;2024-01-06T05:55:46;4.83;;;3.27;;
24859;SDS011;12936;52.006;4.350;2024-01-06T05:58:14;5.10;;;2.90;;
24859;SDS011;12936;52.006;4.350;2024-01-06T06:00:42;4.00;;;2.53;;
24859;SDS011;12936;52.006;4.350;2024-01-06T06:03:12;3.47;;;2.90;;
24859;SDS011;12936;52.006;4.350;2024-01-06T06:05:40;7.77;;;2.90;;
24859;SDS011;12936;52.006;4.350;2024-01-06T06:08:10;4.00;;;2.60;;
24859;SDS011;12936;52.006;4.350;2024-01-06T06:10:38;5.80;;;2.97;;
24859;SDS011;12936;52.006;4.350;2024-01-06T06:13:18;3.70;;;2.70;;
24859;SDS011;12936;52.006;4.350;2024-01-06T06:15:46;5.13;;;2.83;;
24859;SDS011;12936;52.006;4.350;2024-01-06T06:18:14;3.90;;;2.20;;
24859;SDS011;12936;52.006;4.350;2024-01-06T06:20:42;7.70;;;2.60;;
24859;SDS011;12936;52.006;4.350;2024-01-06T06:23:12;3.80;;;2.80;;
24859;SDS011;12936;52.006;4.350;2024-01-06T06:25:40;3.77;;;2.57;;
24859;SDS011;12936;52.006;4.350;2024-01-06T06:28:09;4.73;;;2.50;;
24859;SDS011;12936;52.006;4.350;2024-01-06T06:30:37;8.03;;;2.50;;
24859;SDS011;12936;52.006;4.350;2024-01-06T06:33:05;5.83;;;2.43;;
24859;SDS011;12936;52.006;4.350;2024-01-06T06:35:35;4.53;;;2.57;;
24859;SDS011;12936;52.006;4.350;2024-01-06T06:38:06;3.57;;;2.33;;
24859;SDS011;12936;52.006;4.350;2024-01-06T06:40:35;4.13;;;2.63;;
24859;SDS011;12936;52.006;4.350;2024-01-06T06:43:03;4.03;;;2.50;;
24859;SDS011;12936;52.006;4.350;2024-01-06T06:45:31;6.53;;;3.07;;
24859;SDS011;12936;52.006;4.350;2024-01-06T06:48:00;4.60;;;2.70;;
24859;SDS011;12936;52.006;4.350;2024-01-06T06:50:28;3.83;;;2.63;;
24859;SDS011;12936;52.006;4.350;2024-01-06T06:52:56;4.43;;;2.93;;
24859;SDS011;12936;52.006;4.350;2024-01-06T06:55:24;3.57;;;2.33;;
24859;SDS011;12936;52.006;4.350;2024-01-06T06:57:54;4.10;;;2.63;;
24859;SDS011;12936;52.006;4.350;2024-01-06T07:00:23;6.10;;;2.97;;
24859;SDS011;12936;52.006;4.350;2024-01-06T07:02:51;7.17;;;3.60;;
24859;SDS011;12936;52.006;4.350;2024-01-06T07:05:19;3.73;;;2.50;;
24859;SDS011;12936;52.006;4.350;2024-01-06T07:07:48;4.03;;;2.93;;
24859;SDS011;12936;52.006;4.350;2024-01-06T07:10:16;3.27;;;2.93;;
24859;SDS011;12936;52.006;4.350;2024-01-06T07:12:44;7.17;;;3.07;;
24859;SDS011;12936;52.006;4.350;2024-01-06T07:15:14;6.87;;;3.30;;
24859;SDS011;12936;52.006;4.350;2024-01-06T07:17:42;4.63;;;3.03;;
24859;SDS011;12936;52.006;4.350;2024-01-06T07:20:10;5.90;;;2.83;;
24859;SDS011;12936;52.006;4.350;2024-01-06T07:22:39;4.60;;;3.00;;
24859;SDS011;12936;52.006;4.350;2024-01-06T07:25:08;5.93;;;2.93;;
24859;SDS011;12936;52.006;4.350;2024-01-06T07:27:36;8.47;;;3.63;;
24859;SDS011;12936;52.006;4.350;2024-01-06T07:30:05;3.40;;;2.80;;
24859;SDS011;12936;52.006;4.350;2024-01-06T07:32:37;6.73;;;3.40;;
24859;SDS011;12936;52.006;4.350;2024-01-06T07:35:05;4.93;;;2.90;;
24859;SDS011;12936;52.006;4.350;2024-01-06T07:37:34;8.17;;;3.23;;
24859;SDS011;12936;52.006;4.350;2024-01-06T07:40:02;6.30;;;3.53;;
24859;SDS011;12936;52.006;4.350;2024-01-06T07:42:31;5.00;;;3.23;;
24859;SDS011;12936;52.006;4.350;2024-01-06T07:45:00;7.83;;;3.57;;
24859;SDS011;12936;52.006;4.350;2024-01-06T07:47:28;6.07;;;3.03;;
24859;SDS011;12936;52.006;4.350;2024-01-06T07:49:58;5.13;;;3.57;;
24859;SDS011;12936;52.006;4.350;2024-01-06T07:52:26;4.87;;;3.80;;
24859;SDS011;12936;52.006;4.350;2024-01-06T07:54:54;6.50;;;3.30;;
24859;SDS011;12936;52.006;4.350;2024-01-06T07:57:22;5.17;;;3.40;;
24859;SDS011;12936;52.006;4.350;2024-01-06T07:59:51;5.70;;;3.80;;
24859;SDS011;12936;52.006;4.350;2024-01-06T08:02:19;6.20;;;3.43;;
24859;SDS011;12936;52.006;4.350;2024-01-06T08:04:47;3.70;;;3.00;;
24859;SDS011;12936;52.006;4.350;2024-01-06T08:07:16;7.03;;;3.03;;
24859;SDS011;12936;52.006;4.350;2024-01-06T08:09:45;5.20;;;3.23;;
24859;SDS011;12936;52.006;4.350;2024-01-06T08:12:13;6.37;;;3.80;;
24859;SDS011;12936;52.006;4.350;2024-01-06T08:14:42;9.10;;;3.60;;
24859;SDS011;12936;52.006;4.350;2024-01-06T08:17:10;5.30;;;3.97;;
24859;SDS011;12936;52.006;4.350;2024-01-06T08:19:42;8.17;;;3.90;;
24859;SDS011;12936;52.006;4.350;2024-01-06T08:22:13;5.93;;;4.27;;
24859;SDS011;12936;52.006;4.350;2024-01-06T08:24:42;4.43;;;3.60;;
24859;SDS011;12936;52.006;4.350;2024-01-06T08:27:10;9.40;;;4.20;;
24859;SDS011;12936;52.006;4.350;2024-01-06T08:29:39;5.80;;;3.40;;
24859;SDS011;12936;52.006;4.350;2024-01-06T08:32:07;9.30;;;4.03;;
24859;SDS011;12936;52.006;4.350;2024-01-06T08:34:36;6.57;;;3.53;;
24859;SDS011;12936;52.006;4.350;2024-01-06T08:37:05;7.27;;;3.73;;
24859;SDS011;12936;52.006;4.350;2024-01-06T08:39:33;5.23;;;3.23;;
24859;SDS011;12936;52.006;4.350;2024-01-06T08:42:02;6.13;;;3.27;;
24859;SDS011;12936;52.006;4.350;2024-01-06T08:44:31;6.77;;;3.30;;
24859;SDS011;12936;52.006;4.350;2024-01-06T08:46:59;4.80;;;3.20;;
24859;SDS011;12936;52.006;4.350;2024-01-06T08:49:27;5.93;;;3.40;;
24859;SDS011;12936;52.006;4.350;2024-01-06T08:51:58;7.33;;;3.60;;
24859;SDS011;12936;52.006;4.350;2024-01-06T08:54:26;6.53;;;3.30;;
24859;SDS011;12936;52.006;4.350;2024-01-06T08:56:54;5.90;;;3.27;;
24859;SDS011;12936;52.006;4.350;2024-01-06T08:59:24;5.13;;;3.00;;
24859;SDS011;12936;52.006;4.350;2024-01-06T09:01:52;5.37;;;3.03;;
24859;SDS011;12936;52.006;4.350;2024-01-06T09:04:20;5.57;;;3.13;;
24859;SDS011;12936;52.006;4.350;2024-01-06T09:06:49;5.83;;;2.77;;
24859;SDS011;12936;52.006;4.350;2024-01-06T09:09:18;4.67;;;2.63;;
24859;SDS011;12936;52.006;4.350;2024-01-06T09:11:46;6.97;;;2.93;;
24859;SDS011;12936;52.006;4.350;2024-01-06T09:14:13;4.27;;;2.60;;
24859;SDS011;12936;52.006;4.350;2024-01-06T09:16:42;5.20;;;2.57;;
24859;SDS011;12936;52.006;4.350;2024-01-06T09:19:10;5.00;;;2.77;;
24859;SDS011;12936;52.006;4.350;2024-01-06T09:21:39;4.57;;;2.93;;
24859;SDS011;12936;52.006;4.350;2024-01-06T09:24:07;3.93;;;2.23;;
24859;SDS011;12936;52.006;4.350;2024-01-06T09:26:45;4.10;;;2.83;;
24859;SDS011;12936;52.006;4.350;2024-01-06T09:29:34;5.97;;;2.60;;
24859;SDS011;12936;52.006;4.350;2024-01-06T09:32:04;4.87;;;2.80;;
24859;SDS011;12936;52.006;4.350;2024-01-06T09:34:32;7.17;;;2.63;;
24859;SDS011;12936;52.006;4.350;2024-01-06T09:37:05;4.43;;;2.37;;
24859;SDS011;12936;52.006;4.350;2024-01-06T09:39:33;5.50;;;2.70;;
24859;SDS011;12936;52.006;4.350;2024-01-06T09:42:01;7.63;;;2.90;;
24859;SDS011;12936;52.006;4.350;2024-01-06T09:44:29;7.57;;;2.77;;
24859;SDS011;12936;52.006;4.350;2024-01-06T09:46:58;4.63;;;2.43;;
24859;SDS011;12936;52.006;4.350;2024-01-06T09:49:28;4.70;;;2.57;;
24859;SDS011;12936;52.006;4.350;2024-01-06T09:51:58;5.07;;;2.13;;
24859;SDS011;12936;52.006;4.350;2024-01-06T09:54:29;4.30;;;2.50;;
24859;SDS011;12936;52.006;4.350;2024-01-06T09:57:00;4.93;;;2.63;;
24859;SDS011;12936;52.006;4.350;2024-01-06T09:59:33;3.30;;;2.23;;
24859;SDS011;12936;52.006;4.350;2024-01-06T10:02:03;6.87;;;2.20;;
24859;SDS011;12936;52.006;4.350;2024-01-06T10:04:33;3.60;;;2.10;;
24859;SDS011;12936;52.006;4.350;2024-01-06T10:07:02;6.03;;;2.30;;
24859;SDS011;12936;52.006;4.350;2024-01-06T10:09:32;4.93;;;2.40;;
24859;SDS011;12936;52.006;4.350;2024-01-06T10:12:00;6.23;;;2.23;;
24859;SDS011;12936;52.006;4.350;2024-01-06T10:14:29;6.17;;;2.40;;
24859;SDS011;12936;52.006;4.350;2024-01-06T10:16:57;5.30;;;2.00;;
24859;SDS011;12936;52.006;4.350;2024-01-06T10:19:26;7.07;;;2.40;;
24859;SDS011;12936;52.006;4.350;2024-01-06T10:21:56;4.03;;;2.00;;
24859;SDS011;12936;52.006;4.350;2024-01-06T10:24:28;7.03;;;1.83;;
24859;SDS011;12936;52.006;4.350;2024-01-06T10:26:58;5.93;;;2.30;;
24859;SDS011;12936;52.006;4.350;2024-01-06T10:29:27;6.27;;;3.17;;
24859;SDS011;12936;52.006;4.350;2024-01-06T10:31:55;3.97;;;2.23;;
24859;SDS011;12936;52.006;4.350;2024-01-06T10:34:25;5.37;;;2.37;;
24859;SDS011;12936;52.006;4.350;2024-01-06T10:36:55;5.10;;;2.10;;
24859;SDS011;12936;52.006;4.350;2024-01-06T10:39:24;4.93;;;2.37;;
24859;SDS011;12936;52.006;4.350;2024-01-06T10:41:56;3.97;;;1.93;;
24859;SDS011;12936;52.006;4.350;2024-01-06T10:44:25;4.37;;;2.13;;
24859;SDS011;12936;52.006;4.350;2024-01-06T10:46:55;5.13;;;2.57;;
24859;SDS011;12936;52.006;4.350;2024-01-06T10:49:26;5.37;;;2.30;;
24859;SDS011;12936;52.006;4.350;2024-01-06T10:51:57;4.97;;;2.40;;
24859;SDS011;12936;52.006;4.350;2024-01-06T10:54:27;3.60;;;2.33;;
24859;SDS011;12936;52.006;4.350;2024-01-06T10:56:56;4.27;;;2.30;;
24859;SDS011;12936;52.006;4.350;2024-01-06T10:59:25;8.93;;;2.30;;
24859;SDS011;12936;52.006;4.350;2024-01-06T11:01:56;6.63;;;2.30;;
24859;SDS011;12936;52.006;4.350;2024-01-06T11:04:26;4.60;;;2.60;;
24859;SDS011;12936;52.006;4.350;2024-01-06T11:06:55;8.03;;;2.70;;
24859;SDS011;12936;52.006;4.350;2024-01-06T11:09:27;3.27;;;2.23;;
24859;SDS011;12936;52.006;4.350;2024-01-06T11:12:00;5.60;;;2.20;;
24859;SDS011;12936;52.006;4.350;2024-01-06T11:14:28;7.87;;;2.90;;
24859;SDS011;12936;52.006;4.350;2024-01-06T11:16:59;5.30;;;2.73;;
24859;SDS011;12936;52.006;4.350;2024-01-06T11:22:30;7.33;;;2.87;;
24859;SDS011;12936;52.006;4.350;2024-01-06T11:25:05;6.07;;;2.93;;
24859;SDS011;12936;52.006;4.350;2024-01-06T11:27:35;5.63;;;3.27;;
24859;SDS011;12936;52.006;4.350;2024-01-06T11:30:04;7.53;;;3.53;;
24859;SDS011;12936;52.006;4.350;2024-01-06T11:32:34;5.87;;;3.80;;
24859;SDS011;12936;52.006;4.350;2024-01-06T11:35:06;5.97;;;3.10;;
24859;SDS011;12936;52.006;4.350;2024-01-06T11:37:36;5.83;;;3.90;;
24859;SDS011;12936;52.006;4.350;2024-01-06T11:40:23;9.83;;;3.90;;
24859;SDS011;12936;52.006;4.350;2024-01-06T11:42:59;5.60;;;3.17;;
24859;SDS011;12936;52.006;4.350;2024-01-06T11:45:29;4.73;;;3.30;;
24859;SDS011;12936;52.006;4.350;2024-01-06T11:47:58;4.93;;;3.33;;
24859;SDS011;12936;52.006;4.350;2024-01-06T11:50:29;7.37;;;3.00;;
24859;SDS011;12936;52.006;4.350;2024-01-06T11:52:58;4.57;;;2.83;;
24859;SDS011;12936;52.006;4.350;2024-01-06T11:55:29;5.43;;;2.60;;
24859;SDS011;12936;52.006;4.350;2024-01-06T11:57:58;4.03;;;2.53;;
24859;SDS011;12936;52.006;4.350;2024-01-06T12:00:30;4.20;;;2.50;;
24859;SDS011;12936;52.006;4.350;2024-01-06T12:02:58;8.13;;;2.80;;
24859;SDS011;12936;52.006;4.350;2024-01-06T12:05:28;4.33;;;3.00;;
24859;SDS011;12936;52.006;4.350;2024-01-06T12:07:57;5.73;;;2.70;;
24859;SDS011;12936;52.006;4.350;2024-01-06T12:10:26;3.53;;;2.47;;
24859;SDS011;12936;52.006;4.350;2024-01-06T12:13:02;4.10;;;2.40;;
24859;SDS011;12936;52.006;4.350;2024-01-06T12:15:31;5.20;;;2.97;;
24859;SDS011;12936;52.006;4.350;2024-01-06T12:18:02;6.70;;;2.10;;
24859;SDS011;12936;52.006;4.350;2024-01-06T12:20:31;3.87;;;2.17;;
24859;SDS011;12936;52.006;4.350;2024-01-06T12:22:59;3.53;;;1.90;;
24859;SDS011;12936;52.006;4.350;2024-01-06T12:25:35;6.30;;;1.70;;
24859;SDS011;12936;52.006;4.350;2024-01-06T12:28:06;6.67;;;2.10;;
24859;SDS011;12936;52.006;4.350;2024-01-06T12:30:37;4.40;;;1.90;;
24859;SDS011;12936;52.006;4.350;2024-01-06T12:33:06;5.40;;;1.93;;
24859;SDS011;12936;52.006;4.350;2024-01-06T12:35:38;5.97;;;1.87;;
24859;SDS011;12936;52.006;4.350;2024-01-06T12:38:08;4.47;;;1.70;;
24859;SDS011;12936;52.006;4.350;2024-01-06T12:40:37;6.20;;;1.97;;
24859;SDS011;12936;52.006;4.350;2024-01-06T12:43:07;4.20;;;2.23;;
24859;SDS011;12936;52.006;4.350;2024-01-06T12:45:36;4.63;;;1.60;;
24859;SDS011;12936;52.006;4.350;2024-01-06T12:48:05;2.00;;;1.20;;
24859;SDS011;12936;52.006;4.350;2024-01-06T12:50:34;3.77;;;1.20;;
24859;SDS011;12936;52.006;4.350;2024-01-06T12:53:03;3.60;;;1.50;;
24859;SDS011;12936;52.006;4.350;2024-01-06T12:55:31;4.00;;;2.17;;
24859;SDS011;12936;52.006;4.350;2024-01-06T12:58:01;2.77;;;1.43;;
24859;SDS011;12936;52.006;4.350;2024-01-06T13:00:30;2.37;;;1.47;;
24859;SDS011;12936;52.006;4.350;2024-01-06T13:03:02;3.47;;;1.40;;
24859;SDS011;12936;52.006;4.350;2024-01-06T13:05:31;5.33;;;1.43;;
24859;SDS011;12936;52.006;4.350;2024-01-06T13:07:59;5.23;;;1.47;;
24859;SDS011;12936;52.006;4.350;2024-01-06T13:10:29;3.10;;;1.60;;
24859;SDS011;12936;52.006;4.350;2024-01-06T13:12:57;2.70;;;1.20;;
24859;SDS011;12936;52.006;4.350;2024-01-06T13:15:27;3.33;;;1.20;;
24859;SDS011;12936;52.006;4.350;2024-01-06T13:17:55;2.03;;;1.20;;
24859;SDS011;12936;52.006;4.350;2024-01-06T13:20:24;4.47;;;1.50;;
24859;SDS011;12936;52.006;4.350;2024-01-06T13:22:52;3.10;;;1.23;;
24859;SDS011;12936;52.006;4.350;2024-01-06T13:25:20;2.10;;;1.30;;
24859;SDS011;12936;52.006;4.350;2024-01-06T13:27:49;1.63;;;1.10;;
24859;SDS011;12936;52.006;4.350;2024-01-06T13:30:18;4.30;;;1.50;;
24859;SDS011;12936;52.006;4.350;2024-01-06T13:32:48;2.93;;;1.23;;
24859;SDS011;12936;52.006;4.350;2024-01-06T13:35:17;2.00;;;1.20;;
24859;SDS011;12936;52.006;4.350;2024-01-06T13:37:45;2.50;;;1.20;;
24859;SDS011;12936;52.006;4.350;2024-01-06T13:40:14;3.23;;;1.33;;
24859;SDS011;12936;52.006;4.350;2024-01-06T13:42:46;2.43;;;1.23;;
24859;SDS011;12936;52.006;4.350;2024-01-06T13:45:14;2.97;;;1.40;;
24859;SDS011;12936;52.006;4.350;2024-01-06T13:47:43;4.33;;;1.20;;
24859;SDS011;12936;52.006;4.350;2024-01-06T13:50:14;3.20;;;1.40;;
24859;SDS011;12936;52.006;4.350;2024-01-06T13:52:45;2.90;;;1.20;;
24859;SDS011;12936;52.006;4.350;2024-01-06T13:55:14;3.23;;;1.50;;
24859;SDS011;12936;52.006;4.350;2024-01-06T13:57:43;3.67;;;1.57;;
24859;SDS011;12936;52.006;4.350;2024-01-06T14:00:11;4.93;;;1.47;;
24859;SDS011;12936;52.006;4.350;2024-01-06T14:02:46;4.47;;;1.63;;
24859;SDS011;12936;52.006;4.350;2024-01-06T14:05:16;3.97;;;1.83;;
24859;SDS011;12936;52.006;4.350;2024-01-06T14:07:46;3.53;;;1.73;;
24859;SDS011;12936;52.006;4.350;2024-01-06T14:10:17;1.77;;;1.30;;
24859;SDS011;12936;52.006;4.350;2024-01-06T14:12:45;6.43;;;1.80;;
24859;SDS011;12936;52.006;4.350;2024-01-06T14:15:14;4.83;;;1.50;;
24859;SDS011;12936;52.006;4.350;2024-01-06T14:17:42;3.07;;;1.60;;
24859;SDS011;12936;52.006;4.350;2024-01-06T14:20:18;3.00;;;1.50;;
24859;SDS011;12936;52.006;4.350;2024-01-06T14:22:46;4.23;;;1.60;;
24859;SDS011;12936;52.006;4.350;2024-01-06T14:25:16;3.70;;;1.70;;
24859;SDS011;12936;52.006;4.350;2024-01-06T14:27:45;2.27;;;1.47;;
24859;SDS011;12936;52.006;4.350;2024-01-06T14:30:13;2.33;;;1.50;;
24859;SDS011;12936;52.006;4.350;2024-01-06T14:32:42;4.93;;;1.73;;
24859;SDS011;12936;52.006;4.350;2024-01-06T14:35:10;2.07;;;1.20;;
24859;SDS011;12936;52.006;4.350;2024-01-06T14:37:42;3.40;;;1.60;;
24859;SDS011;12936;52.006;4.350;2024-01-06T14:40:11;5.27;;;1.63;;
24859;SDS011;12936;52.006;4.350;2024-01-06T14:42:40;4.53;;;1.70;;
24859;SDS011;12936;52.006;4.350;2024-01-06T14:45:08;2.33;;;1.47;;
24859;SDS011;12936;52.006;4.350;2024-01-06T14:47:37;2.80;;;1.60;;
24859;SDS011;12936;52.006;4.350;2024-01-06T14:50:05;2.57;;;1.40;;
24859;SDS011;12936;52.006;4.350;2024-01-06T14:52:35;2.20;;;1.40;;
24859;SDS011;12936;52.006;4.350;2024-01-06T14:55:05;2.60;;;1.40;;
24859;SDS011;12936;52.006;4.350;2024-01-06T14:57:34;4.90;;;1.70;;
24859;SDS011;12936;52.006;4.350;2024-01-06T15:00:02;4.47;;;1.63;;
24859;SDS011;12936;52.006;4.350;2024-01-06T15:02:31;2.70;;;1.43;;